Flight Track Log - Related Links

Times and Time Zones

All times are in EDT time to prevent confusion due to time zone crossing. See the CTL22 flight status page for this flight to view local times or setup timezone preferences in your user account.

Time Position Orientation Groundspeed Altitude Reporting Facility
EDT Latitude Longitude Course Direction KTS MPH feet Rate Location/Type
Wed 09:25:21 PM 41.9103 -82.5194 297° West 156 180 6,000  Level Cleveland Center
Wed 09:25:52 PM 41.9244 -82.5422 310° West 153 176 6,000  Level Cleveland Center
Wed 09:26:21 PM 41.9344 -82.5650 301° West 156 180 6,000  Level Cleveland Center
Wed 09:26:53 PM 41.9464 -82.5933 300° West 154 177 6,000  Level Cleveland Center
Wed 09:27:21 PM 41.9567 -82.6131 305° West 156 180 6,000  Level Cleveland Center
Wed 09:27:53 PM 41.9728 -82.6386 310° West 153 176 6,000  Level Cleveland Center
Wed 09:28:21 PM 41.9806 -82.6642 292° West 156 180 6,000  Level Cleveland Center
Wed 09:28:48 PM 41.9906 -82.6869 301° West 155 178 6,000  Level Cleveland Center
Wed 09:29:21 PM 41.9986 -82.7122 293° West 156 180 6,000  Level Cleveland Center
Wed 09:29:42 PM 42.0064 -82.7347 295° West 153 176 6,000  Level Cleveland Center
Wed 09:30:00 PM 41.9473 -82.8382 297° West  Level Estimated
Wed 09:30:43 PM 42.0264 -82.7858 298° West 152 175 6,000  Level Cleveland Center
Wed 09:31:44 PM 42.0442 -82.8339 296° West 149 171 6,100  Climbing Cleveland Center
Wed 09:32:50 PM 42.0681 -82.8881 301° West 150 173 6,000 -43 Descending Cleveland Center
Wed 09:34:03 PM 42.0897 -82.9475 296° West 152 175 6,000  Level Cleveland Center
Wed 09:35:16 PM 42.1156 -83.0072 300° West 148 170 6,000 47 Level Cleveland Center
Wed 09:36:10 PM 42.1356 -83.0528 301° West 148 170 6,100  Climbing Cleveland Center
Wed 09:37:05 PM 42.1514 -83.0983 295° West 148 170 6,000 -49 Descending Cleveland Center
Wed 09:38:12 PM 42.1753 -83.1497 302° West 146 168 6,000  Level Cleveland Center
Wed 09:39:12 PM 42.1928 -83.1981 296° West 146 168 6,000  Level Cleveland Center
Wed 09:40:13 PM 42.2103 -83.2492 295° West 145 167 6,000 47 Level Cleveland Center
Wed 09:41:20 PM 42.2300 -83.3006 297° West 144 166 6,100 45 Climbing Cleveland Center
Wed 09:42:26 PM 42.2453 -83.3572 290° West 145 167 6,100 -47 Level Cleveland Center
Wed 09:43:27 PM 42.2650 -83.4086 297° West 146 168 6,000 -49 Descending Cleveland Center
Wed 09:44:28 PM 42.2806 -83.4542 295° West 148 170 6,000  Level Cleveland Center
Wed 09:45:10 PM 42.2922 -83.4883 295° West 145 167 6,000  Level Cleveland Center
Wed 09:46:35 PM 42.3153 -83.5653 292° West 146 168 6,000  Level Cleveland Center
Wed 09:47:36 PM 42.3306 -83.6167 292° West 152 175 6,000  Level Cleveland Center
Wed 09:48:37 PM 42.3481 -83.6653 296° West 147 169 6,000  Level Cleveland Center
Wed 09:49:25 PM 42.3614 -83.7053 294° West 150 173 6,000  Level Cleveland Center
Wed 09:50:38 PM 42.3806 -83.7708 292° West 151 174 6,000  Level Cleveland Center
Wed 09:52:14 PM 42.4089 -83.8428 298° West 150 173 6,000  Level Chicago Center
Wed 09:53:15 PM 42.4258 -83.8925 295° West 148 170 6,000 -49 Level Chicago Center
Wed 09:54:16 PM 42.4464 -83.9531 295° West 148 170 5,900  Descending Chicago Center
Wed 09:55:18 PM 42.4608 -84.0006 292° West 145 167 6,000 49 Climbing Chicago Center
Wed 09:56:19 PM 42.4736 -84.0539 288° West 144 166 6,000  Level Chicago Center
Wed 09:57:20 PM 42.4894 -84.1058 292° West 148 170 6,000  Level Chicago Center
Wed 09:58:22 PM 42.5047 -84.1586 291° West 150 173 6,000  Level Chicago Center
Wed 09:59:23 PM 42.5203 -84.2075 293° West 145 167 6,000  Level Chicago Center
Wed 10:00:24 PM 42.5378 -84.2592 295° West 149 171 6,000  Level Chicago Center
Wed 10:01:26 PM 42.5569 -84.3133 296° West 158 182 6,000  Level Chicago Center
Wed 10:02:27 PM 42.5722 -84.3650 292° West 152 175 6,000  Level Chicago Center
Wed 10:03:28 PM 42.5886 -84.4167 293° West 150 173 6,000  Level Chicago Center
Wed 10:04:29 PM 42.6058 -84.4803 290° West 150 173 6,000  Level Chicago Center
Wed 10:05:31 PM 42.6206 -84.5331 291° West 150 173 6,000  Level Chicago Center
Wed 10:06:32 PM 42.6344 -84.5833 291° West 145 167 6,000  Level Chicago Center
Wed 10:07:33 PM 42.6483 -84.6367 290° West 148 170 6,000 -49 Level Chicago Center
Wed 10:08:34 PM 42.6633 -84.6894 291° West 151 174 5,900  Descending Chicago Center
Wed 10:09:36 PM 42.6786 -84.7386 293° West 145 167 6,000 49 Climbing Chicago Center
Wed 10:10:37 PM 42.6944 -84.7911 292° West 148 170 6,000  Level Chicago Center
Wed 10:11:38 PM 42.7086 -84.8428 290° West 148 170 6,000  Level Chicago Center
Wed 10:12:39 PM 42.7208 -84.8956 288° West 146 168 6,000  Level Chicago Center
Wed 10:13:41 PM 42.7347 -84.9486 290° West 149 171 6,000  Level Chicago Center
Wed 10:14:42 PM 42.7517 -85.0094 291° West 146 168 6,000 -541 Level Chicago Center
Wed 10:15:43 PM 42.7672 -85.0672 290° West 157 181 4,900 -1,122 Descending Chicago Center
Wed 10:16:45 PM 42.7839 -85.1319 289° West 175 201 3,700 -1,171 Descending Chicago Center
Wed 10:17:46 PM 42.7972 -85.1953 286° West 176 203 2,500 -689 Descending Chicago Center
Wed 10:18:47 PM 42.8111 -85.2564 287° West 174 200 2,300 -98 Descending Chicago Center
Wed 10:19:49 PM 42.8244 -85.3056 290° West 148 170 2,300  Level Chicago Center
Wed 10:20:50 PM 42.8381 -85.3578 290° West 146 168 2,300 -148 Level Chicago Center
Wed 10:21:51 PM 42.8531 -85.4083 292° West 145 167 2,000 -439 Descending Chicago Center
Wed 10:22:53 PM 42.8700 -85.4642 293° West 151 174 1,400 -537 Descending Chicago Center
Wed 10:23:54 PM 42.8803 -85.5031 290° West 130 150 900 -492 Descending Chicago Center
Wed 10:25:00 PM 42.8667 -85.5167 270° West  Level FlightAware Approximate
Wed 10:32:00 PM 42.8808 -85.5228 270° West  Level Estimated

Login

Don't have an account? Register now (free) for customized features, flight alerts, and more!